Terminal Aerodrome Forecast
Issued by NWS Charleston, WV

Current Version | Previous Version | Graphics & Text | Print | Product List | Glossary On
Versions: 1 2 3 4 5 6 7 8 9 10 11 12 13 14 15 16 17 18 19 20 21 22 23
652
FTUS41 KRLX 280535
TAFEKN
TAF
KEKN 280535Z 2806/2906 00000KT P6SM OVC025
      TEMPO 2806/2810 2SM BR
     FM281000 00000KT 2SM BR BKN008
     FM281400 VRB03KT P6SM BKN015
     FM281700 20005KT P6SM BKN035
     FM282000 20006KT P6SM SHRA VCTS BKN035CB
     FM290000 26008KT P6SM BKN060=

USA.gov is the U.S. government's official web portal to all federal, state and local government web resources and services.